Time;durP1;ratioP1;P1;durP2;ratioP2;P2;SDS_P1;SDS_P2;PMS_P1;PMS_P2;Temp;Humidity;BMP_temperature;BMP_pressure;BME280_temperature;BME280_humidity;BME280_pressure;Samples;Min_cycle;Max_cycle;Signal;HPM_P1;HPM_P2
2020/12/19 00:01:14;;;;;;;18.50;5.07;;;23.90;63.90;;;;;;6363109;22;19998;-76
2020/12/19 00:04:20;;;;;;;23.48;7.00;;;23.90;64.10;;;;;;6336460;22;20588;-74
2020/12/19 00:07:26;;;;;;;18.23;5.65;;;23.90;64.20;;;;;;6363854;22;20120;-76
2020/12/19 00:10:12;;;;;;;;;;;23.90;64.30;;;;;;6364077;22;20022;-74
2020/12/19 00:13:18;;;;;;;19.20;6.70;;;23.80;64.30;;;;;;6364943;22;19906;-77
2020/12/19 00:16:29;;;;;;;17.05;5.35;;;23.80;64.30;;;;;;6366028;22;20029;-76
2020/12/19 00:19:35;;;;;;;17.00;6.63;;;23.80;64.40;;;;;;6366522;22;20115;-76
2020/12/19 00:22:21;;;;;;;;;;;23.80;64.40;;;;;;6365511;22;20085;-75
2020/12/19 00:25:27;;;;;;;19.70;5.68;;;23.80;64.60;;;;;;6366491;22;19898;-75
2020/12/19 00:28:33;;;;;;;13.50;4.15;;;23.70;64.50;;;;;;6366628;22;20430;-77
2020/12/19 00:31:39;;;;;;;19.27;6.93;;;23.70;64.60;;;;;;6364965;22;20010;-76
2020/12/19 00:34:45;;;;;;;22.15;6.82;;;23.70;64.70;;;;;;6364798;22;20017;-76
2020/12/19 00:37:51;;;;;;;17.27;5.80;;;23.70;64.70;;;;;;6359853;22;20006;-76
2020/12/19 00:40:37;;;;;;;;;;;23.70;64.80;;;;;;6366685;22;20002;-76
2020/12/19 00:43:43;;;;;;;19.75;6.85;;;23.70;65.00;;;;;;6363606;22;19924;-74
2020/12/19 00:46:52;;;;;;;17.20;7.03;;;23.70;65.10;;;;;;6365524;22;20410;-75
2020/12/19 00:49:58;;;;;;;20.98;7.20;;;23.60;65.10;;;;;;6365702;22;20025;-76
2020/12/19 00:53:05;;;;;;;21.27;7.55;;;23.60;65.10;;;;;;6363185;22;20045;-76
2020/12/19 00:55:50;;;;;;;;;;;23.60;65.30;;;;;;6365331;22;20447;-76
2020/12/19 00:58:57;;;;;;;23.13;8.65;;;23.60;65.40;;;;;;6365545;22;19963;-76
2020/12/19 01:02:03;;;;;;;19.13;7.60;;;23.60;65.40;;;;;;6364497;22;20026;-75
2020/12/19 01:05:09;;;;;;;22.67;8.05;;;23.60;65.40;;;;;;6364964;22;20006;-74
2020/12/19 01:08:18;;;;;;;18.52;8.82;;;23.50;65.40;;;;;;6366462;22;19998;-77
2020/12/19 01:11:25;;;;;;;14.70;6.88;;;23.60;65.50;;;;;;6365900;22;20032;-76
2020/12/19 01:14:31;;;;;;;27.10;9.90;;;23.60;65.60;;;;;;6364859;22;20066;-76
2020/12/19 01:17:37;;;;;;;14.98;6.43;;;23.50;65.60;;;;;;6365193;22;20004;-76
2020/12/19 01:20:43;;;;;;;23.75;7.32;;;23.50;65.70;;;;;;6366236;22;20010;-76
2020/12/19 01:23:29;;;;;;;;;;;23.50;65.70;;;;;;6364827;22;20002;-71
2020/12/19 01:26:35;;;;;;;20.67;5.50;;;23.50;65.80;;;;;;6364770;22;19980;-76
2020/12/19 01:29:41;;;;;;;20.10;6.10;;;23.50;65.70;;;;;;6366117;22;20014;-76
2020/12/19 01:32:49;;;;;;;20.02;5.80;;;23.50;65.80;;;;;;6365249;22;20010;-76
2020/12/19 01:35:56;;;;;;;22.27;5.95;;;23.50;65.80;;;;;;6363717;22;20082;-74
2020/12/19 01:39:02;;;;;;;21.75;6.45;;;23.40;65.80;;;;;;6365838;22;20441;-73
2020/12/19 01:42:08;;;;;;;18.10;6.28;;;23.40;65.80;;;;;;6366103;22;20002;-75
2020/12/19 01:45:14;;;;;;;21.50;5.70;;;23.40;65.90;;;;;;6364599;22;19998;-72
2020/12/19 01:48:20;;;;;;;22.30;7.95;;;23.40;66.10;;;;;;6364556;22;20005;-76
2020/12/19 01:51:26;;;;;;;28.52;11.65;;;23.40;66.00;;;;;;6363629;22;20434;-73
2020/12/19 01:54:35;;;;;;;25.88;11.00;;;23.40;66.10;;;;;;6364774;22;20006;-75
2020/12/19 01:57:41;;;;;;;22.42;7.50;;;23.40;66.10;;;;;;6363689;22;20002;-74
2020/12/19 02:00:27;;;;;;;;;;;23.30;66.10;;;;;;6365771;22;19998;-75
2020/12/19 02:03:33;;;;;;;20.13;6.15;;;23.30;66.20;;;;;;6365785;22;19898;-73
2020/12/19 02:06:01;;;;;;;17.08;5.45;;;23.30;66.20;;;;;;6363322;22;20073;-73
2020/12/19 02:08:27;;;;;;;19.73;5.22;;;23.30;66.20;;;;;;6365150;22;20073;-74
2020/12/19 02:11:33;;;;;;;21.02;6.35;;;23.30;66.20;;;;;;6364156;22;20056;-74
2020/12/19 02:14:39;;;;;;;19.95;6.50;;;23.30;66.20;;;;;;6363701;22;20003;-75
2020/12/19 02:17:25;;;;;;;;;;;23.30;66.20;;;;;;6365815;22;20006;-74
2020/12/19 02:20:31;;;;;;;17.67;4.90;;;23.30;66.30;;;;;;6335633;22;20288;-75
2020/12/19 02:23:37;;;;;;;21.23;6.05;;;23.20;66.20;;;;;;6364794;22;20441;-75
2020/12/19 02:26:43;;;;;;;19.65;8.15;;;23.20;66.30;;;;;;6365998;22;20006;-75
2020/12/19 02:29:49;;;;;;;23.30;11.82;;;23.20;66.40;;;;;;6365182;22;20002;-75
2020/12/19 02:32:56;;;;;;;24.20;10.98;;;23.20;66.40;;;;;;6363212;22;20014;-76
2020/12/19 02:36:02;;;;;;;19.70;7.72;;;23.20;66.40;;;;;;6364055;22;20026;-74
2020/12/19 02:39:08;;;;;;;15.75;6.18;;;23.20;66.40;;;;;;6365248;22;20005;-73
2020/12/19 02:42:14;;;;;;;19.08;5.35;;;23.20;66.50;;;;;;6364321;22;20002;-74
2020/12/19 02:45:20;;;;;;;19.65;7.28;;;23.20;66.50;;;;;;6363636;22;20006;-75
2020/12/19 02:48:26;;;;;;;18.13;4.72;;;23.20;66.50;;;;;;6364341;22;20045;-75
2020/12/19 02:50:53;;;;;;;19.50;7.50;;;23.10;66.40;;;;;;6364043;22;20079;-74
2020/12/19 02:53:20;;;;;;;31.25;8.65;;;23.10;66.40;;;;;;6363328;22;20045;-73
2020/12/19 02:55:46;;;;;;;18.38;6.03;;;23.10;66.40;;;;;;6365265;22;20053;-74
2020/12/19 02:58:12;;;;;;;20.63;6.15;;;23.10;66.40;;;;;;6363606;22;20009;-74
2020/12/19 03:00:39;;;;;;;19.42;5.63;;;23.10;66.40;;;;;;6365466;22;20030;-75
2020/12/19 03:03:05;;;;;;;18.23;6.60;;;23.10;66.40;;;;;;6364589;22;20005;-71
2020/12/19 03:05:32;;;;;;;22.58;6.30;;;23.10;66.50;;;;;;6363893;22;19998;-75
2020/12/19 03:07:58;;;;;;;21.73;7.07;;;23.10;66.50;;;;;;6364421;22;20009;-74
2020/12/19 03:11:04;;;;;;;16.65;5.85;;;23.10;66.50;;;;;;6363748;22;20463;-76
2020/12/19 03:14:10;;;;;;;16.40;4.72;;;23.10;66.50;;;;;;6364652;22;20014;-73
2020/12/19 03:17:16;;;;;;;15.48;4.80;;;23.10;66.50;;;;;;6364554;22;20480;-74
2020/12/19 03:20:23;;;;;;;25.17;6.13;;;23.00;66.50;;;;;;6363022;22;20002;-75
2020/12/19 03:23:29;;;;;;;16.08;4.63;;;23.00;66.50;;;;;;6363802;22;20037;-75
2020/12/19 03:26:35;;;;;;;21.73;4.90;;;23.00;66.50;;;;;;6364674;22;20010;-74
2020/12/19 03:29:41;;;;;;;19.75;4.40;;;23.00;66.60;;;;;;6363823;22;20794;-74
2020/12/19 03:32:47;;;;;;;14.35;4.57;;;23.00;66.70;;;;;;6362770;22;20014;-76
2020/12/19 03:35:53;;;;;;;24.13;5.75;;;23.00;66.70;;;;;;6364192;22;20061;-77
2020/12/19 03:38:19;;;;;;;13.93;5.93;;;23.00;66.70;;;;;;6364533;22;20026;-76
2020/12/19 03:41:25;;;;;;;21.23;6.38;;;22.90;66.70;;;;;;6363326;22;20032;-77
2020/12/19 03:44:32;;;;;;;15.25;5.57;;;23.00;66.80;;;;;;6364351;22;20409;-74
2020/12/19 03:47:38;;;;;;;13.68;4.82;;;22.90;66.80;;;;;;6363629;22;20338;-73
2020/12/19 03:50:44;;;;;;;16.30;4.68;;;22.90;66.90;;;;;;6362685;22;19999;-74
2020/12/19 03:53:50;;;;;;;19.05;5.75;;;22.90;66.90;;;;;;6357394;22;20291;-75
2020/12/19 03:56:36;;;;;;;;;;;22.90;67.60;;;;;;6363991;22;20002;-72
2020/12/19 03:59:42;;;;;;;18.90;5.80;;;22.90;67.00;;;;;;6363067;22;19904;-71
2020/12/19 04:02:48;;;;;;;15.75;4.07;;;22.90;66.90;;;;;;6362425;22;19998;-71
2020/12/19 04:05:54;;;;;;;18.23;7.40;;;22.90;66.90;;;;;;6364063;22;19999;-75
2020/12/19 04:09:00;;;;;;;23.52;9.20;;;22.90;66.90;;;;;;6363823;22;20078;-72
2020/12/19 04:12:06;;;;;;;28.10;12.82;;;22.90;66.90;;;;;;6361669;22;20006;-77
2020/12/19 04:15:12;;;;;;;20.30;10.45;;;22.90;67.00;;;;;;6363288;22;20003;-75
2020/12/19 04:18:18;;;;;;;18.45;6.80;;;22.90;67.00;;;;;;6364118;22;20326;-76
2020/12/19 04:21:04;;;;;;;;;;;22.90;67.10;;;;;;6363221;22;20435;-77
2020/12/19 04:24:11;;;;;;;12.27;5.05;;;22.90;67.00;;;;;;6362990;22;19924;-75
2020/12/19 04:27:17;;;;;;;16.95;6.28;;;22.90;67.00;;;;;;6364160;22;20033;-74
2020/12/19 04:30:23;;;;;;;17.08;5.68;;;22.90;67.10;;;;;;6363242;22;20002;-76
2020/12/19 04:33:29;;;;;;;20.77;6.95;;;22.80;67.10;;;;;;6361664;22;20429;-77
2020/12/19 04:35:56;;;;;;;14.18;4.10;;;22.80;67.10;;;;;;6363664;22;20086;-74
2020/12/19 04:38:22;;;;;;;15.45;5.25;;;22.90;67.30;;;;;;6365399;22;20105;-74
2020/12/19 04:40:49;;;;;;;16.58;6.55;;;22.80;67.20;;;;;;6364676;22;20014;-74
2020/12/19 04:43:20;;;;;;;15.48;4.85;;;22.90;67.30;;;;;;6365172;22;19998;-73
2020/12/19 04:45:48;;;;;;;16.70;3.97;;;22.90;67.40;;;;;;6363269;22;20025;-73
2020/12/19 04:48:18;;;;;;;14.27;4.72;;;22.90;67.40;;;;;;6365140;22;20397;-73
2020/12/19 04:50:46;;;;;;;19.02;4.57;;;22.90;67.40;;;;;;6363369;22;20079;-73
2020/12/19 04:53:18;;;;;;;14.70;5.47;;;22.90;67.50;;;;;;6365471;22;20414;-77
2020/12/19 04:55:46;;;;;;;17.27;4.65;;;22.90;67.50;;;;;;6364563;22;19998;-74
2020/12/19 04:58:15;;;;;;;12.20;4.85;;;22.90;67.50;;;;;;6365602;22;20453;-77
2020/12/19 05:00:42;;;;;;;15.07;4.80;;;22.90;67.50;;;;;;6367618;22;20006;-76
2020/12/19 05:03:09;;;;;;;20.10;6.93;;;22.90;67.50;;;;;;6365627;22;19994;-76
2020/12/19 05:05:45;;;;;;;20.17;5.30;;;22.90;67.50;;;;;;6366949;22;19994;-76
2020/12/19 05:08:12;;;;;;;16.63;5.75;;;22.90;67.50;;;;;;6364246;22;19998;-76
2020/12/19 05:10:39;;;;;;;20.65;6.13;;;22.90;67.50;;;;;;6364005;22;20048;-75
2020/12/19 05:13:06;;;;;;;108.00;13.95;;;22.90;67.50;;;;;;6367226;22;20025;-76
2020/12/19 05:15:33;;;;;;;175.25;22.42;;;23.00;67.50;;;;;;6366602;22;20002;-77
2020/12/19 05:18:01;;;;;;;121.90;19.80;;;23.00;67.50;;;;;;6366399;22;19998;-75
2020/12/19 05:20:29;;;;;;;104.10;17.63;;;23.00;67.40;;;;;;6366150;22;20418;-75
2020/12/19 05:22:57;;;;;;;100.18;50.85;;;23.00;67.40;;;;;;6366951;22;20073;-75
2020/12/19 05:25:26;;;;;;;116.78;103.95;;;23.00;67.40;;;;;;6338301;22;20360;-75
2020/12/19 05:27:53;;;;;;;79.95;67.82;;;23.00;67.60;;;;;;6367387;22;19999;-73
2020/12/19 05:30:20;;;;;;;58.15;51.55;;;23.10;67.70;;;;;;6366792;22;20002;-81
2020/12/19 05:32:49;;;;;;;48.47;35.70;;;23.00;67.50;;;;;;6366488;22;20048;-79
2020/12/19 05:35:18;;;;;;;37.75;25.52;;;23.10;67.50;;;;;;6367151;22;20373;-80
2020/12/19 05:37:56;;;;;;;109.65;29.30;;;23.10;67.40;;;;;;6365275;22;20402;-82
2020/12/19 05:40:24;;;;;;;71.72;18.88;;;23.10;67.20;;;;;;6367312;22;20583;-85
2020/12/19 05:42:53;;;;;;;50.58;12.93;;;23.20;67.20;;;;;;6366378;22;20021;-79
2020/12/19 05:45:22;;;;;;;31.52;8.88;;;23.20;67.30;;;;;;6367632;22;20334;-80
2020/12/19 05:47:49;;;;;;;28.92;7.55;;;23.20;67.40;;;;;;6339124;22;20002;-79
2020/12/19 05:50:17;;;;;;;25.65;8.43;;;23.20;67.90;;;;;;6366495;22;20003;-80
2020/12/19 05:52:43;;;;;;;23.35;9.25;;;23.20;67.10;;;;;;6366504;22;20014;-83
2020/12/19 05:55:12;;;;;;;22.52;8.00;;;23.30;67.00;;;;;;6365782;22;20002;-78
2020/12/19 05:57:39;;;;;;;20.08;7.43;;;23.30;66.80;;;;;;6367731;22;20027;-82
2020/12/19 06:00:12;;;;;;;12.07;5.90;;;23.30;66.70;;;;;;6366159;22;20006;-79
2020/12/19 06:02:39;;;;;;;14.85;6.32;;;23.30;66.50;;;;;;6367391;22;20029;-78
2020/12/19 06:05:11;;;;;;;16.50;4.85;;;23.40;66.40;;;;;;6367044;22;20002;-80
2020/12/19 06:07:43;;;;;;;12.30;3.80;;;23.40;66.30;;;;;;6365935;22;20003;-79
2020/12/19 06:10:13;;;;;;;11.45;5.22;;;23.50;66.10;;;;;;6366229;22;20069;-82
2020/12/19 06:13:05;;;;;;;9.77;3.55;;;23.50;66.00;;;;;;6363858;22;20386;-79
2020/12/19 06:16:10;;;;;;;16.35;4.07;;;23.60;65.90;;;;;;6365154;22;20333;-82
2020/12/19 06:18:53;;;;;;;17.93;5.33;;;23.60;65.80;;;;;;6365907;22;20002;-79
2020/12/19 06:21:59;;;;;;;20.92;11.95;;;23.60;65.50;;;;;;6365321;22;20226;-76
2020/12/19 06:25:18;;;;;;;26.35;12.63;;;23.70;65.40;;;;;;6365436;22;20404;-75
2020/12/19 06:28:24;;;;;;;30.60;11.20;;;23.70;65.30;;;;;;6367183;22;20029;-78
2020/12/19 06:31:33;;;;;;;22.95;8.73;;;23.80;65.20;;;;;;6366140;22;19999;-80
2020/12/19 06:34:39;;;;;;;22.20;8.50;;;23.80;65.00;;;;;;6364693;22;20006;-80
2020/12/19 06:37:45;;;;;;;21.42;7.47;;;23.90;64.90;;;;;;6366101;22;20021;-71
2020/12/19 06:40:57;;;;;;;22.55;7.95;;;23.90;64.70;;;;;;6365832;22;20359;-74
2020/12/19 06:44:03;;;;;;;15.95;7.80;;;23.90;64.50;;;;;;6365040;22;20416;-73
2020/12/19 06:47:12;;;;;;;14.38;5.82;;;24.00;64.30;;;;;;6365650;22;19999;-73
2020/12/19 06:50:18;;;;;;;16.40;5.63;;;24.00;64.20;;;;;;6365313;22;20006;-76
2020/12/19 06:57:06;;;;;;;13.40;5.82;;;24.10;63.90;;;;;;6330047;22;20475;-76
2020/12/19 07:00:12;;;;;;;16.42;6.00;;;24.20;63.80;;;;;;6329562;22;20030;-76
2020/12/19 07:03:18;;;;;;;18.17;5.75;;;24.20;63.70;;;;;;6332255;22;20422;-78
2020/12/19 07:06:27;;;;;;;14.90;5.93;;;24.20;63.50;;;;;;6304219;22;20006;-79
2020/12/19 07:09:48;;;;;;;12.80;4.40;;;24.30;63.30;;;;;;6330693;22;20010;-76
2020/12/19 07:12:34;;;;;;;16.27;5.00;;;24.30;63.10;;;;;;6300784;22;20010;-79
2020/12/19 07:15:38;;;;;;;23.48;7.35;;;24.40;62.90;;;;;;6303461;22;19999;-83
2020/12/19 07:18:25;;;;;;;23.42;11.07;;;24.40;62.60;;;;;;6332009;22;20086;-88
2020/12/19 07:21:37;;;;;;;29.23;12.25;;;24.40;62.40;;;;;;6330356;22;20006;-81
2020/12/19 07:24:03;;;;;;;22.23;9.00;;;24.50;62.40;;;;;;6331179;22;20537;-76
2020/12/19 07:26:30;;;;;;;21.83;8.77;;;24.60;62.30;;;;;;6327987;22;20006;-78
2020/12/19 07:28:56;;;;;;;21.75;9.10;;;24.60;62.00;;;;;;6327974;22;20358;-78
2020/12/19 07:31:23;;;;;;;15.95;4.93;;;24.60;61.80;;;;;;6328941;22;20058;-77
2020/12/19 07:33:50;;;;;;;15.40;5.20;;;24.60;61.60;;;;;;6350747;22;20002;-77
2020/12/19 07:36:18;;;;;;;12.73;4.95;;;24.70;61.40;;;;;;6364099;22;20036;-77
2020/12/19 07:38:45;;;;;;;17.55;4.40;;;24.70;61.10;;;;;;6362975;22;20064;-76
2020/12/19 07:41:51;;;;;;;12.95;4.40;;;24.80;61.00;;;;;;6364123;22;19995;-75
2020/12/19 07:44:18;;;;;;;;;;;24.80;60.60;;;;;;6365088;22;20002;-74
2020/12/19 07:46:56;;;;;;;12.15;4.43;;;24.80;60.50;;;;;;6365181;22;19899;-75
2020/12/19 07:49:28;;;;;;;12.52;5.25;;;24.90;60.50;;;;;;6366506;22;20045;-74
2020/12/19 07:52:12;;;;;;;14.02;5.80;;;24.90;60.30;;;;;;6363707;22;20021;-74
2020/12/19 07:54:41;;;;;;;10.48;3.70;;;25.00;60.00;;;;;;6365407;22;20006;-74
2020/12/19 07:57:08;;;;;;;15.98;5.38;;;25.00;59.80;;;;;;6364225;22;20034;-75
2020/12/19 07:59:35;;;;;;;8.57;4.05;;;25.10;59.70;;;;;;6365769;22;20048;-74
2020/12/19 08:02:04;;;;;;;18.55;5.53;;;25.10;59.50;;;;;;6365490;22;19994;-73
2020/12/19 08:04:32;;;;;;;12.52;4.35;;;25.10;59.30;;;;;;6364533;22;20081;-76
2020/12/19 08:06:59;;;;;;;14.88;3.78;;;25.20;59.50;;;;;;6365833;22;20326;-74
2020/12/19 08:09:27;;;;;;;10.75;3.58;;;25.30;59.40;;;;;;6363835;22;20318;-73
2020/12/19 08:12:30;;;;;;;14.57;4.30;;;25.30;59.30;;;;;;6366228;22;20018;-77
2020/12/19 08:14:58;;;;;;;9.50;3.00;;;25.40;59.00;;;;;;6365324;22;20540;-76
2020/12/19 08:18:09;;;;;;;11.88;3.80;;;25.40;58.90;;;;;;6365034;22;20422;-75
2020/12/19 08:21:18;;;;;;;15.63;4.43;;;25.40;58.70;;;;;;6364426;22;20059;-77
2020/12/19 08:24:25;;;;;;;18.55;7.95;;;25.40;58.80;;;;;;6361731;22;19998;-76
2020/12/19 08:27:51;;;;;;;14.00;4.55;;;25.50;59.00;;;;;;6362919;22;20070;-76
2020/12/19 08:30:40;;;;;;;15.13;4.97;;;25.60;58.90;;;;;;6332398;22;20495;-77
2020/12/19 08:33:46;;;;;;;14.43;4.82;;;25.60;58.70;;;;;;6363396;22;20089;-77
2020/12/19 08:36:32;;;;;;;;;;;25.70;58.50;;;;;;6366552;22;20419;-79
2020/12/19 08:39:54;;;;;;;14.10;3.10;;;25.70;58.50;;;;;;6364811;22;20282;-76
2020/12/19 08:43:01;;;;;;;13.77;3.85;;;25.80;58.60;;;;;;6367592;22;20025;-77
2020/12/19 08:46:13;;;;;;;15.75;3.85;;;25.90;58.60;;;;;;6367604;22;20005;-77
2020/12/19 08:48:42;;;;;;;15.23;5.25;;;25.90;58.50;;;;;;6366108;22;19998;-76
2020/12/19 08:51:11;;;;;;;12.20;4.65;;;26.00;58.50;;;;;;6338927;22;20024;-75
2020/12/19 08:53:38;;;;;;;12.70;4.35;;;26.00;58.40;;;;;;6366366;22;20451;-76
2020/12/19 08:56:18;;;;;;;15.55;4.30;;;26.10;58.30;;;;;;6367144;22;20445;-76
2020/12/19 08:58:58;;;;;;;18.05;4.47;;;26.10;58.20;;;;;;6367496;22;20008;-77
2020/12/19 09:01:31;;;;;;;17.45;4.80;;;26.20;58.20;;;;;;6337214;22;20826;-75
2020/12/19 09:04:09;;;;;;;12.88;3.83;;;26.20;58.10;;;;;;6367476;22;20492;-76
2020/12/19 09:06:46;;;;;;;13.85;3.75;;;26.20;58.20;;;;;;6365828;22;20710;-76
2020/12/19 09:09:39;;;;;;;13.43;4.95;;;26.30;58.20;;;;;;6365606;22;20693;-74
2020/12/19 09:12:09;;;;;;;13.25;3.72;;;26.30;58.30;;;;;;6360322;22;20019;-74
2020/12/19 09:14:36;;;;;;;13.60;5.22;;;26.30;58.30;;;;;;6366394;22;19999;-73
2020/12/19 09:17:02;;;;;;;17.85;4.80;;;26.30;58.30;;;;;;6367417;22;20009;-74
2020/12/19 09:20:08;;;;;;;12.43;4.03;;;26.30;58.10;;;;;;6337739;22;20388;-74
2020/12/19 09:22:52;;;;;;;22.23;4.75;;;26.30;58.10;;;;;;6364199;22;20039;-76
2020/12/19 09:25:18;;;;;;;31.90;6.97;;;26.40;58.40;;;;;;6367588;22;20333;-75
2020/12/19 09:27:45;;;;;;;17.83;5.60;;;26.50;58.00;;;;;;6366651;22;20326;-75
2020/12/19 09:30:11;;;;;;;15.60;4.18;;;26.60;57.90;;;;;;6367169;22;20006;-75
2020/12/19 09:32:38;;;;;;;46.00;35.22;;;26.60;57.80;;;;;;6365984;22;20011;-75
2020/12/19 09:35:04;;;;;;;28.80;13.45;;;26.70;57.70;;;;;;6366611;22;19999;-76
2020/12/19 09:37:31;;;;;;;25.15;9.30;;;26.70;57.80;;;;;;6366985;22;19998;-75
2020/12/19 09:39:57;;;;;;;18.08;8.07;;;26.70;57.70;;;;;;6365525;22;20329;-75
2020/12/19 09:42:24;;;;;;;17.63;6.82;;;26.70;57.60;;;;;;6366850;22;19994;-74
2020/12/19 09:44:50;;;;;;;19.48;6.43;;;26.70;57.90;;;;;;6364848;22;20010;-75
2020/12/19 09:47:17;;;;;;;14.75;5.20;;;26.80;57.60;;;;;;6365909;22;20527;-76
2020/12/19 09:49:43;;;;;;;17.95;5.75;;;26.80;57.60;;;;;;6365285;22;20012;-75
2020/12/19 09:52:10;;;;;;;22.80;6.53;;;26.90;57.50;;;;;;6366691;22;20015;-75
2020/12/19 09:54:36;;;;;;;14.10;4.60;;;26.90;57.40;;;;;;6365986;22;20005;-75
2020/12/19 09:57:03;;;;;;;17.83;5.90;;;27.00;57.40;;;;;;6362685;22;19998;-75
2020/12/19 09:59:30;;;;;;;17.60;6.00;;;27.00;57.50;;;;;;6362796;22;20002;-75
2020/12/19 10:01:56;;;;;;;15.00;4.70;;;27.10;57.50;;;;;;6361392;22;20013;-77
2020/12/19 10:04:22;;;;;;;15.00;5.35;;;27.10;57.30;;;;;;6363003;22;20056;-74
2020/12/19 10:06:52;;;;;;;16.48;7.15;;;27.10;57.20;;;;;;6361616;22;20037;-75
2020/12/19 10:09:18;;;;;;;12.18;5.07;;;27.10;57.30;;;;;;6362956;22;20006;-75
2020/12/19 10:11:45;;;;;;;17.80;5.57;;;27.20;57.30;;;;;;6361668;22;20079;-75
2020/12/19 10:14:11;;;;;;;14.38;5.63;;;27.20;57.20;;;;;;6362770;22;20391;-74
2020/12/19 10:16:38;;;;;;;16.10;5.05;;;27.20;57.10;;;;;;6362518;22;19998;-74
2020/12/19 10:19:05;;;;;;;17.40;4.68;;;27.30;57.10;;;;;;6361475;22;20086;-74
2020/12/19 10:21:31;;;;;;;17.98;6.25;;;27.30;57.00;;;;;;6364377;22;20024;-76
2020/12/19 10:23:57;;;;;;;15.63;4.70;;;27.30;57.10;;;;;;6365415;22;20082;-78
2020/12/19 10:26:24;;;;;;;12.05;4.43;;;27.40;57.10;;;;;;6367108;22;19994;-74
2020/12/19 10:28:50;;;;;;;22.27;5.65;;;27.40;57.20;;;;;;6359786;22;20433;-76
2020/12/19 10:31:17;;;;;;;12.43;4.85;;;27.40;57.30;;;;;;6365524;22;20014;-77
2020/12/19 10:33:43;;;;;;;16.52;5.40;;;27.50;57.20;;;;;;6365688;22;19994;-75
2020/12/19 10:36:14;;;;;;;12.30;3.53;;;27.50;57.20;;;;;;6364593;22;19998;-75
2020/12/19 10:38:40;;;;;;;17.15;4.70;;;27.50;57.20;;;;;;6364943;22;20039;-74
2020/12/19 10:41:10;;;;;;;17.08;4.78;;;27.60;57.20;;;;;;6364470;22;20066;-75
2020/12/19 10:43:37;;;;;;;14.73;5.93;;;27.60;57.10;;;;;;6365845;22;20060;-74
2020/12/19 10:46:03;;;;;;;18.55;4.40;;;27.70;57.10;;;;;;6363560;22;20434;-77
2020/12/19 10:48:30;;;;;;;17.58;5.90;;;27.70;56.90;;;;;;6366260;22;20057;-75
2020/12/19 10:50:56;;;;;;;13.23;4.65;;;27.80;56.80;;;;;;6365886;22;20430;-78
2020/12/19 10:53:24;;;;;;;16.27;4.75;;;27.80;56.80;;;;;;6366147;22;20006;-77
2020/12/19 10:55:51;;;;;;;11.35;4.13;;;27.90;56.80;;;;;;6336530;22;20013;-80
2020/12/19 10:58:18;;;;;;;12.43;3.83;;;27.80;56.70;;;;;;6363521;22;19991;-76
2020/12/19 11:00:45;;;;;;;19.88;5.53;;;27.90;56.70;;;;;;6364893;22;20345;-77
2020/12/19 11:03:11;;;;;;;15.05;3.55;;;27.90;56.50;;;;;;6364007;22;20022;-74
2020/12/19 11:05:41;;;;;;;19.70;5.03;;;27.90;56.40;;;;;;6364566;22;20523;-78
2020/12/19 11:08:10;;;;;;;13.00;3.50;;;27.90;56.30;;;;;;6363546;22;20006;-78
2020/12/19 11:10:37;;;;;;;14.93;4.10;;;27.90;56.20;;;;;;6364212;22;19995;-76
2020/12/19 11:13:04;;;;;;;20.83;5.85;;;28.00;56.20;;;;;;6364501;22;20010;-75
2020/12/19 11:15:31;;;;;;;12.82;4.00;;;28.00;56.20;;;;;;6362259;22;20002;-74
2020/12/19 11:17:57;;;;;;;15.23;4.00;;;28.00;56.00;;;;;;6364070;22;20009;-74
2020/12/19 11:20:24;;;;;;;14.27;4.53;;;28.10;56.00;;;;;;6363108;22;20077;-75
2020/12/19 11:22:51;;;;;;;16.05;4.80;;;28.10;55.90;;;;;;6363657;22;20033;-74
2020/12/19 11:25:18;;;;;;;16.52;4.03;;;28.10;56.00;;;;;;6363360;22;19998;-81
2020/12/19 11:27:44;;;;;;;16.98;7.72;;;28.10;55.90;;;;;;6363374;22;20011;-75
2020/12/19 11:30:11;;;;;;;10.93;5.70;;;28.10;55.90;;;;;;6363266;22;20085;-75
2020/12/19 11:32:40;;;;;;;19.67;4.82;;;28.10;55.90;;;;;;6335971;22;20014;-82
2020/12/19 11:35:08;;;;;;;15.02;3.83;;;28.20;55.60;;;;;;6364804;22;20010;-76
2020/12/19 11:37:35;;;;;;;14.27;5.05;;;28.20;55.60;;;;;;6362590;22;19994;-76
2020/12/19 11:40:03;;;;;;;16.35;5.05;;;28.30;55.00;;;;;;6336182;22;20469;-77
2020/12/19 11:42:29;;;;;;;16.38;4.70;;;28.30;55.50;;;;;;6363244;22;20055;-74
2020/12/19 11:44:56;;;;;;;14.25;3.72;;;28.40;55.20;;;;;;6364576;22;20011;-73
2020/12/19 11:47:23;;;;;;;12.18;3.78;;;28.40;55.00;;;;;;6335993;22;20009;-73
2020/12/19 11:49:51;;;;;;;23.30;4.85;;;28.50;54.90;;;;;;6362678;22;20021;-74
2020/12/19 11:52:17;;;;;;;14.07;4.65;;;28.50;54.80;;;;;;6364011;22;20014;-76
2020/12/19 11:54:44;;;;;;;18.63;4.07;;;28.50;54.70;;;;;;6362867;22;19990;-75
2020/12/19 11:57:12;;;;;;;14.38;4.03;;;28.50;54.70;;;;;;6364634;22;20064;-78
2020/12/19 11:59:39;;;;;;;20.23;5.43;;;28.50;54.60;;;;;;6362746;22;20003;-72
2020/12/19 12:02:06;;;;;;;16.45;4.25;;;28.60;54.40;;;;;;6363785;22;20002;-75
2020/12/19 12:04:33;;;;;;;18.17;4.72;;;28.60;54.30;;;;;;6363401;22;20055;-74
2020/12/19 12:06:59;;;;;;;19.65;4.93;;;28.60;54.20;;;;;;6363137;22;20819;-77
2020/12/19 12:09:26;;;;;;;15.45;3.70;;;28.60;54.20;;;;;;6364190;22;20006;-76
2020/12/19 12:11:52;;;;;;;13.70;4.80;;;28.60;54.30;;;;;;6362847;22;20338;-75
2020/12/19 12:14:19;;;;;;;15.00;3.85;;;28.70;54.10;;;;;;6363273;22;20030;-76
2020/12/19 12:16:45;;;;;;;12.95;4.10;;;28.70;53.90;;;;;;6361584;22;19998;-74
2020/12/19 12:19:12;;;;;;;19.42;5.63;;;28.70;53.90;;;;;;6365568;22;20009;-78
2020/12/19 12:21:41;;;;;;;15.20;3.90;;;28.70;53.80;;;;;;6364390;22;19994;-74
2020/12/19 12:24:07;;;;;;;15.48;4.15;;;28.70;53.60;;;;;;6364466;22;20002;-76
2020/12/19 12:26:34;;;;;;;17.95;4.60;;;28.70;53.40;;;;;;6365192;22;20002;-73
2020/12/19 12:29:01;;;;;;;27.92;4.00;;;28.70;53.40;;;;;;6362336;22;19995;-74
2020/12/19 12:31:30;;;;;;;14.73;3.28;;;28.70;53.50;;;;;;6365275;22;20093;-77
2020/12/19 12:33:57;;;;;;;16.77;4.70;;;28.70;53.50;;;;;;6364272;22;19998;-76
2020/12/19 12:36:31;;;;;;;10.90;4.28;;;28.60;53.50;;;;;;6365250;22;20440;-75
2020/12/19 12:38:58;;;;;;;11.40;4.22;;;28.60;53.60;;;;;;6364659;22;19998;-76
2020/12/19 12:41:25;;;;;;;16.08;4.18;;;28.70;53.60;;;;;;6365569;22;20005;-75
2020/12/19 12:43:52;;;;;;;13.38;3.40;;;28.70;53.60;;;;;;6365257;22;20003;-74
2020/12/19 12:46:19;;;;;;;10.55;4.13;;;28.70;53.40;;;;;;6364321;22;19998;-76
2020/12/19 12:49:25;;;;;;;10.65;3.15;;;28.70;53.20;;;;;;6364018;22;20029;-76
2020/12/19 12:52:32;;;;;;;10.88;5.05;;;28.80;53.10;;;;;;6364258;22;20014;-75
2020/12/19 12:55:38;;;;;;;7.85;3.28;;;28.80;52.80;;;;;;6363201;22;20412;-75
2020/12/19 12:58:44;;;;;;;14.60;3.88;;;28.80;52.70;;;;;;6363685;22;19999;-75
2020/12/19 13:01:50;;;;;;;10.88;3.35;;;28.90;52.60;;;;;;6365303;22;20002;-74
2020/12/19 13:04:56;;;;;;;10.63;5.13;;;28.90;52.50;;;;;;6361553;22;20002;-73
2020/12/19 13:08:02;;;;;;;13.63;3.13;;;28.90;52.40;;;;;;6364199;22;20006;-75
2020/12/19 13:11:08;;;;;;;18.65;3.92;;;29.00;52.30;;;;;;6359387;22;20411;-73
2020/12/19 13:14:14;;;;;;;15.43;4.30;;;29.00;52.10;;;;;;6362367;22;20021;-74
2020/12/19 13:17:20;;;;;;;15.57;3.67;;;29.00;52.10;;;;;;6362511;22;20012;-72
2020/12/19 13:20:26;;;;;;;19.05;4.13;;;29.00;52.00;;;;;;6366410;22;20048;-73
2020/12/19 13:23:33;;;;;;;11.02;4.00;;;29.00;51.80;;;;;;6367224;22;20002;-76
2020/12/19 13:26:39;;;;;;;16.55;3.70;;;29.00;51.80;;;;;;6366168;22;20009;-73
2020/12/19 13:29:45;;;;;;;14.40;4.13;;;29.00;51.90;;;;;;6366836;22;20055;-78
2020/12/19 13:32:51;;;;;;;11.52;4.22;;;28.90;51.90;;;;;;6367149;22;20325;-75
2020/12/19 13:35:57;;;;;;;18.58;4.65;;;28.90;51.90;;;;;;6366481;22;20084;-77
2020/12/19 13:39:03;;;;;;;13.95;3.70;;;28.90;51.90;;;;;;6365787;22;20470;-75
2020/12/19 13:42:09;;;;;;;16.20;4.15;;;28.90;52.00;;;;;;6367072;22;19998;-73
2020/12/19 13:45:15;;;;;;;13.73;4.10;;;28.90;52.00;;;;;;6366132;22;20326;-72
2020/12/19 13:48:22;;;;;;;15.15;4.25;;;28.80;52.10;;;;;;6365318;22;20047;-73
2020/12/19 13:51:28;;;;;;;10.93;3.10;;;28.80;52.10;;;;;;6365763;22;20437;-76
2020/12/19 13:54:34;;;;;;;11.25;4.07;;;28.80;52.00;;;;;;6366363;22;20017;-75
2020/12/19 13:57:41;;;;;;;11.45;4.13;;;28.80;51.90;;;;;;6366729;22;20318;-82
2020/12/19 14:00:47;;;;;;;17.35;7.25;;;28.80;51.80;;;;;;6365325;22;20623;-73
2020/12/19 14:03:53;;;;;;;10.13;4.47;;;28.80;51.90;;;;;;6366679;22;20025;-80
2020/12/19 14:06:59;;;;;;;18.52;5.38;;;28.80;51.80;;;;;;6366713;22;20002;-79
2020/12/19 14:10:05;;;;;;;21.13;5.97;;;28.80;51.70;;;;;;6365928;22;19999;-74
2020/12/19 14:13:11;;;;;;;14.75;4.45;;;28.80;51.60;;;;;;6366687;22;20091;-75